sensor_id;sensor_type;location;lat;lon;timestamp;P1;durP1;ratioP1;P2;durP2;ratioP2
2756;SDS011;1386;50.862;6.494;2024-03-02T00:48:51;2.17;;;1.90;;
2756;SDS011;1386;50.862;6.494;2024-03-02T00:51:20;4.27;;;2.23;;
2756;SDS011;1386;50.862;6.494;2024-03-02T00:53:49;5.03;;;2.57;;
2756;SDS011;1386;50.862;6.494;2024-03-02T00:56:17;3.63;;;2.40;;
2756;SDS011;1386;50.862;6.494;2024-03-02T00:58:44;2.90;;;2.30;;
2756;SDS011;1386;50.862;6.494;2024-03-02T01:01:11;3.00;;;2.47;;
2756;SDS011;1386;50.862;6.494;2024-03-02T01:03:39;4.73;;;2.50;;
2756;SDS011;1386;50.862;6.494;2024-03-02T01:06:09;3.00;;;2.10;;
2756;SDS011;1386;50.862;6.494;2024-03-02T01:08:37;5.33;;;2.30;;
2756;SDS011;1386;50.862;6.494;2024-03-02T01:11:04;4.20;;;2.40;;
2756;SDS011;1386;50.862;6.494;2024-03-02T01:13:31;2.57;;;2.37;;
2756;SDS011;1386;50.862;6.494;2024-03-02T01:15:59;3.67;;;2.70;;
2756;SDS011;1386;50.862;6.494;2024-03-02T01:18:27;2.37;;;2.13;;
2756;SDS011;1386;50.862;6.494;2024-03-02T01:20:55;4.87;;;2.30;;
2756;SDS011;1386;50.862;6.494;2024-03-02T01:23:24;2.80;;;2.60;;
2756;SDS011;1386;50.862;6.494;2024-03-02T01:25:51;2.20;;;2.00;;
2756;SDS011;1386;50.862;6.494;2024-03-02T01:28:20;4.00;;;2.90;;
2756;SDS011;1386;50.862;6.494;2024-03-02T01:30:47;5.10;;;2.60;;
2756;SDS011;1386;50.862;6.494;2024-03-02T01:33:14;3.97;;;2.40;;
2756;SDS011;1386;50.862;6.494;2024-03-02T01:35:42;3.17;;;2.30;;
2756;SDS011;1386;50.862;6.494;2024-03-02T01:38:09;4.20;;;2.37;;
2756;SDS011;1386;50.862;6.494;2024-03-02T01:40:38;2.57;;;2.10;;
2756;SDS011;1386;50.862;6.494;2024-03-02T01:43:05;2.37;;;2.17;;
2756;SDS011;1386;50.862;6.494;2024-03-02T01:45:32;3.93;;;1.73;;
2756;SDS011;1386;50.862;6.494;2024-03-02T01:47:59;2.40;;;2.03;;
2756;SDS011;1386;50.862;6.494;2024-03-02T01:50:26;1.77;;;1.67;;
2756;SDS011;1386;50.862;6.494;2024-03-02T01:52:54;2.67;;;1.73;;
2756;SDS011;1386;50.862;6.494;2024-03-02T01:55:21;2.13;;;1.80;;
2756;SDS011;1386;50.862;6.494;2024-03-02T01:57:56;3.07;;;2.70;;
2756;SDS011;1386;50.862;6.494;2024-03-02T02:00:24;3.80;;;1.90;;
2756;SDS011;1386;50.862;6.494;2024-03-02T02:02:51;3.37;;;1.90;;
2756;SDS011;1386;50.862;6.494;2024-03-02T02:05:18;2.40;;;2.03;;
2756;SDS011;1386;50.862;6.494;2024-03-02T02:07:45;2.70;;;2.00;;
2756;SDS011;1386;50.862;6.494;2024-03-02T02:10:13;2.47;;;1.87;;
2756;SDS011;1386;50.862;6.494;2024-03-02T02:13:02;4.57;;;1.60;;
2756;SDS011;1386;50.862;6.494;2024-03-02T02:15:30;2.33;;;1.97;;
2756;SDS011;1386;50.862;6.494;2024-03-02T02:17:59;3.63;;;1.80;;
2756;SDS011;1386;50.862;6.494;2024-03-02T02:20:26;3.13;;;1.90;;
2756;SDS011;1386;50.862;6.494;2024-03-02T02:22:58;2.83;;;1.90;;
2756;SDS011;1386;50.862;6.494;2024-03-02T02:25:26;2.77;;;1.60;;
2756;SDS011;1386;50.862;6.494;2024-03-02T02:27:54;1.90;;;1.60;;
2756;SDS011;1386;50.862;6.494;2024-03-02T02:30:21;7.60;;;1.87;;
2756;SDS011;1386;50.862;6.494;2024-03-02T02:32:56;2.27;;;1.87;;
2756;SDS011;1386;50.862;6.494;2024-03-02T02:35:36;2.43;;;1.63;;
2756;SDS011;1386;50.862;6.494;2024-03-02T02:38:05;2.57;;;1.90;;
2756;SDS011;1386;50.862;6.494;2024-03-02T02:40:35;2.37;;;2.13;;
2756;SDS011;1386;50.862;6.494;2024-03-02T02:43:09;1.60;;;1.50;;
2756;SDS011;1386;50.862;6.494;2024-03-02T02:45:36;1.77;;;1.63;;
2756;SDS011;1386;50.862;6.494;2024-03-02T02:48:03;2.07;;;1.60;;
2756;SDS011;1386;50.862;6.494;2024-03-02T02:50:31;1.60;;;1.50;;
2756;SDS011;1386;50.862;6.494;2024-03-02T02:52:58;4.60;;;1.90;;
2756;SDS011;1386;50.862;6.494;2024-03-02T02:55:26;2.50;;;1.83;;
2756;SDS011;1386;50.862;6.494;2024-03-02T02:57:53;2.33;;;2.00;;
2756;SDS011;1386;50.862;6.494;2024-03-02T03:00:20;3.60;;;1.70;;
2756;SDS011;1386;50.862;6.494;2024-03-02T03:02:50;2.83;;;2.33;;
2756;SDS011;1386;50.862;6.494;2024-03-02T03:05:21;4.63;;;2.10;;
2756;SDS011;1386;50.862;6.494;2024-03-02T03:07:48;2.20;;;2.00;;
2756;SDS011;1386;50.862;6.494;2024-03-02T03:10:18;2.10;;;1.90;;
2756;SDS011;1386;50.862;6.494;2024-03-02T03:13:16;4.60;;;1.73;;
2756;SDS011;1386;50.862;6.494;2024-03-02T03:15:53;3.23;;;1.90;;
2756;SDS011;1386;50.862;6.494;2024-03-02T03:18:27;3.10;;;2.13;;
2756;SDS011;1386;50.862;6.494;2024-03-02T03:20:57;2.63;;;1.87;;
2756;SDS011;1386;50.862;6.494;2024-03-02T03:23:29;3.53;;;1.93;;
2756;SDS011;1386;50.862;6.494;2024-03-02T03:25:57;2.70;;;2.13;;
2756;SDS011;1386;50.862;6.494;2024-03-02T03:28:30;4.03;;;2.20;;
2756;SDS011;1386;50.862;6.494;2024-03-02T03:31:12;1.77;;;1.67;;
2756;SDS011;1386;50.862;6.494;2024-03-02T03:33:44;2.77;;;2.03;;
2756;SDS011;1386;50.862;6.494;2024-03-02T03:36:12;1.93;;;1.77;;
2756;SDS011;1386;50.862;6.494;2024-03-02T03:38:39;1.97;;;1.77;;
2756;SDS011;1386;50.862;6.494;2024-03-02T03:41:06;5.17;;;2.10;;
2756;SDS011;1386;50.862;6.494;2024-03-02T03:43:35;2.20;;;1.83;;
2756;SDS011;1386;50.862;6.494;2024-03-02T03:46:02;2.23;;;1.90;;
2756;SDS011;1386;50.862;6.494;2024-03-02T03:48:35;2.53;;;1.70;;
2756;SDS011;1386;50.862;6.494;2024-03-02T03:51:10;2.50;;;2.10;;
2756;SDS011;1386;50.862;6.494;2024-03-02T03:53:37;1.73;;;1.63;;
2756;SDS011;1386;50.862;6.494;2024-03-02T03:56:05;2.70;;;2.33;;
2756;SDS011;1386;50.862;6.494;2024-03-02T04:52:57;2.50;;;2.27;;
2756;SDS011;1386;50.862;6.494;2024-03-02T04:55:28;2.43;;;2.20;;
2756;SDS011;1386;50.862;6.494;2024-03-02T04:58:12;9.50;;;3.27;;
2756;SDS011;1386;50.862;6.494;2024-03-02T05:00:40;2.33;;;2.13;;
2756;SDS011;1386;50.862;6.494;2024-03-02T05:03:08;3.00;;;1.97;;
2756;SDS011;1386;50.862;6.494;2024-03-02T06:22:42;3.33;;;2.57;;
2756;SDS011;1386;50.862;6.494;2024-03-02T06:25:44;2.40;;;2.20;;
2756;SDS011;1386;50.862;6.494;2024-03-02T06:32:32;4.53;;;2.50;;
2756;SDS011;1386;50.862;6.494;2024-03-02T06:42:27;2.30;;;2.10;;
2756;SDS011;1386;50.862;6.494;2024-03-02T06:45:33;1.97;;;1.87;;
2756;SDS011;1386;50.862;6.494;2024-03-02T06:48:31;2.30;;;2.10;;
2756;SDS011;1386;50.862;6.494;2024-03-02T06:51:22;2.10;;;1.90;;
2756;SDS011;1386;50.862;6.494;2024-03-02T06:54:28;1.90;;;1.80;;
2756;SDS011;1386;50.862;6.494;2024-03-02T07:00:46;1.87;;;1.67;;
2756;SDS011;1386;50.862;6.494;2024-03-02T07:07:00;1.73;;;1.63;;
2756;SDS011;1386;50.862;6.494;2024-03-02T07:10:15;2.70;;;2.13;;
2756;SDS011;1386;50.862;6.494;2024-03-02T07:13:05;2.17;;;1.97;;
2756;SDS011;1386;50.862;6.494;2024-03-02T07:16:06;4.07;;;2.10;;
2756;SDS011;1386;50.862;6.494;2024-03-02T07:19:09;2.00;;;1.80;;
2756;SDS011;1386;50.862;6.494;2024-03-02T07:22:02;2.57;;;2.30;;
2756;SDS011;1386;50.862;6.494;2024-03-02T07:24:42;2.33;;;2.10;;
2756;SDS011;1386;50.862;6.494;2024-03-02T07:27:17;5.13;;;2.77;;
2756;SDS011;1386;50.862;6.494;2024-03-02T07:30:10;2.80;;;2.10;;
2756;SDS011;1386;50.862;6.494;2024-03-02T07:33:11;3.17;;;2.00;;
2756;SDS011;1386;50.862;6.494;2024-03-02T07:42:12;2.17;;;1.97;;
2756;SDS011;1386;50.862;6.494;2024-03-02T07:45:10;3.70;;;2.30;;
2756;SDS011;1386;50.862;6.494;2024-03-02T07:47:48;2.30;;;2.10;;
2756;SDS011;1386;50.862;6.494;2024-03-02T07:50:30;3.83;;;2.43;;
2756;SDS011;1386;50.862;6.494;2024-03-02T07:53:35;3.80;;;2.30;;
2756;SDS011;1386;50.862;6.494;2024-03-02T07:56:13;2.80;;;2.53;;
2756;SDS011;1386;50.862;6.494;2024-03-02T07:59:27;2.60;;;2.23;;
2756;SDS011;1386;50.862;6.494;2024-03-02T08:02:19;2.43;;;2.17;;
2756;SDS011;1386;50.862;6.494;2024-03-02T08:05:19;2.10;;;1.93;;
2756;SDS011;1386;50.862;6.494;2024-03-02T08:21:14;2.17;;;1.80;;
2756;SDS011;1386;50.862;6.494;2024-03-02T08:27:03;2.00;;;1.80;;
2756;SDS011;1386;50.862;6.494;2024-03-02T08:29:30;3.40;;;1.77;;
2756;SDS011;1386;50.862;6.494;2024-03-02T08:31:59;2.20;;;1.70;;
2756;SDS011;1386;50.862;6.494;2024-03-02T08:34:25;2.00;;;1.47;;
2756;SDS011;1386;50.862;6.494;2024-03-02T08:36:52;2.40;;;1.67;;
2756;SDS011;1386;50.862;6.494;2024-03-02T08:39:19;1.60;;;1.50;;
2756;SDS011;1386;50.862;6.494;2024-03-02T08:41:47;2.87;;;1.60;;
2756;SDS011;1386;50.862;6.494;2024-03-02T08:44:14;3.23;;;2.00;;
2756;SDS011;1386;50.862;6.494;2024-03-02T08:46:41;2.23;;;1.60;;
2756;SDS011;1386;50.862;6.494;2024-03-02T08:49:09;2.47;;;1.67;;
2756;SDS011;1386;50.862;6.494;2024-03-02T08:51:37;1.80;;;1.60;;
2756;SDS011;1386;50.862;6.494;2024-03-02T08:54:04;1.60;;;1.50;;
2756;SDS011;1386;50.862;6.494;2024-03-02T08:56:31;1.83;;;1.60;;
2756;SDS011;1386;50.862;6.494;2024-03-02T08:58:58;2.70;;;1.53;;
2756;SDS011;1386;50.862;6.494;2024-03-02T09:01:25;3.83;;;2.47;;
2756;SDS011;1386;50.862;6.494;2024-03-02T09:03:52;2.10;;;1.50;;
2756;SDS011;1386;50.862;6.494;2024-03-02T09:06:20;1.97;;;1.70;;
2756;SDS011;1386;50.862;6.494;2024-03-02T09:08:47;2.30;;;1.80;;
2756;SDS011;1386;50.862;6.494;2024-03-02T09:11:16;3.43;;;2.10;;
2756;SDS011;1386;50.862;6.494;2024-03-02T09:13:44;2.27;;;1.80;;
2756;SDS011;1386;50.862;6.494;2024-03-02T09:16:10;3.10;;;1.83;;
2756;SDS011;1386;50.862;6.494;2024-03-02T09:18:37;2.73;;;1.87;;
2756;SDS011;1386;50.862;6.494;2024-03-02T09:21:07;2.80;;;2.53;;
2756;SDS011;1386;50.862;6.494;2024-03-02T09:23:50;2.33;;;1.83;;
2756;SDS011;1386;50.862;6.494;2024-03-02T09:26:23;2.00;;;1.77;;
2756;SDS011;1386;50.862;6.494;2024-03-02T09:28:51;2.03;;;1.63;;
2756;SDS011;1386;50.862;6.494;2024-03-02T09:31:38;3.50;;;2.03;;
2756;SDS011;1386;50.862;6.494;2024-03-02T09:34:11;5.57;;;1.80;;
2756;SDS011;1386;50.862;6.494;2024-03-02T09:36:40;2.10;;;1.70;;
2756;SDS011;1386;50.862;6.494;2024-03-02T09:39:16;3.33;;;1.63;;
2756;SDS011;1386;50.862;6.494;2024-03-02T09:41:58;1.30;;;1.20;;
2756;SDS011;1386;50.862;6.494;2024-03-02T09:44:25;1.90;;;1.50;;
2756;SDS011;1386;50.862;6.494;2024-03-02T09:46:52;2.20;;;1.60;;
2756;SDS011;1386;50.862;6.494;2024-03-02T09:49:19;4.10;;;1.70;;
2756;SDS011;1386;50.862;6.494;2024-03-02T09:51:47;2.40;;;1.63;;
2756;SDS011;1386;50.862;6.494;2024-03-02T09:54:16;2.17;;;1.70;;
2756;SDS011;1386;50.862;6.494;2024-03-02T09:56:43;2.73;;;1.90;;
2756;SDS011;1386;50.862;6.494;2024-03-02T09:59:10;3.03;;;1.70;;
2756;SDS011;1386;50.862;6.494;2024-03-02T10:01:38;2.30;;;1.60;;
2756;SDS011;1386;50.862;6.494;2024-03-02T10:04:05;2.60;;;1.30;;
2756;SDS011;1386;50.862;6.494;2024-03-02T10:06:32;1.80;;;1.70;;
2756;SDS011;1386;50.862;6.494;2024-03-02T10:08:59;3.53;;;1.30;;
2756;SDS011;1386;50.862;6.494;2024-03-02T10:11:28;2.40;;;1.37;;
2756;SDS011;1386;50.862;6.494;2024-03-02T10:14:05;3.77;;;2.20;;
2756;SDS011;1386;50.862;6.494;2024-03-02T10:16:34;3.00;;;1.57;;
2756;SDS011;1386;50.862;6.494;2024-03-02T10:19:18;2.63;;;1.23;;
2756;SDS011;1386;50.862;6.494;2024-03-02T10:22:00;1.87;;;1.37;;
2756;SDS011;1386;50.862;6.494;2024-03-02T10:24:28;3.57;;;1.60;;
2756;SDS011;1386;50.862;6.494;2024-03-02T10:27:03;4.67;;;1.30;;
2756;SDS011;1386;50.862;6.494;2024-03-02T10:29:36;1.63;;;1.10;;
2756;SDS011;1386;50.862;6.494;2024-03-02T10:32:04;2.07;;;1.20;;
2756;SDS011;1386;50.862;6.494;2024-03-02T10:34:35;1.40;;;1.20;;
2756;SDS011;1386;50.862;6.494;2024-03-02T10:39:39;2.10;;;1.13;;
2756;SDS011;1386;50.862;6.494;2024-03-02T10:42:13;2.67;;;1.30;;
2756;SDS011;1386;50.862;6.494;2024-03-02T10:44:41;3.40;;;1.83;;
2756;SDS011;1386;50.862;6.494;2024-03-02T10:47:09;1.83;;;1.20;;
2756;SDS011;1386;50.862;6.494;2024-03-02T10:49:40;2.10;;;1.33;;
2756;SDS011;1386;50.862;6.494;2024-03-02T10:52:08;3.20;;;1.30;;
2756;SDS011;1386;50.862;6.494;2024-03-02T10:54:35;1.87;;;1.20;;
2756;SDS011;1386;50.862;6.494;2024-03-02T10:57:15;1.83;;;1.27;;
2756;SDS011;1386;50.862;6.494;2024-03-02T11:43:44;3.50;;;1.30;;
2756;SDS011;1386;50.862;6.494;2024-03-02T11:46:16;4.20;;;1.20;;
2756;SDS011;1386;50.862;6.494;2024-03-02T11:48:43;2.97;;;1.30;;
2756;SDS011;1386;50.862;6.494;2024-03-02T11:51:10;1.47;;;1.00;;
2756;SDS011;1386;50.862;6.494;2024-03-02T11:53:38;2.93;;;1.30;;
2756;SDS011;1386;50.862;6.494;2024-03-02T11:56:06;2.40;;;1.30;;
2756;SDS011;1386;50.862;6.494;2024-03-02T11:58:39;4.40;;;1.67;;
2756;SDS011;1386;50.862;6.494;2024-03-02T12:01:08;2.00;;;1.40;;
2756;SDS011;1386;50.862;6.494;2024-03-02T12:03:36;3.90;;;1.30;;
2756;SDS011;1386;50.862;6.494;2024-03-02T12:06:04;1.70;;;1.07;;
2756;SDS011;1386;50.862;6.494;2024-03-02T12:08:32;2.37;;;1.50;;
2756;SDS011;1386;50.862;6.494;2024-03-02T12:10:59;1.33;;;1.20;;
2756;SDS011;1386;50.862;6.494;2024-03-02T12:13:27;3.63;;;1.10;;
2756;SDS011;1386;50.862;6.494;2024-03-02T12:15:54;4.20;;;1.30;;
2756;SDS011;1386;50.862;6.494;2024-03-02T12:18:25;2.20;;;1.30;;
2756;SDS011;1386;50.862;6.494;2024-03-02T12:20:52;2.13;;;1.20;;
2756;SDS011;1386;50.862;6.494;2024-03-02T12:23:22;1.63;;;1.17;;
2756;SDS011;1386;50.862;6.494;2024-03-02T12:25:49;1.87;;;1.40;;
2756;SDS011;1386;50.862;6.494;2024-03-02T12:28:16;2.00;;;1.23;;
2756;SDS011;1386;50.862;6.494;2024-03-02T12:30:44;2.67;;;1.50;;
2756;SDS011;1386;50.862;6.494;2024-03-02T12:33:12;1.47;;;1.37;;
2756;SDS011;1386;50.862;6.494;2024-03-02T12:35:53;2.50;;;1.47;;
2756;SDS011;1386;50.862;6.494;2024-03-02T12:38:20;2.20;;;1.43;;
2756;SDS011;1386;50.862;6.494;2024-03-02T12:40:51;4.40;;;1.73;;
2756;SDS011;1386;50.862;6.494;2024-03-02T12:43:18;4.13;;;1.40;;
2756;SDS011;1386;50.862;6.494;2024-03-02T12:45:45;1.50;;;1.20;;
2756;SDS011;1386;50.862;6.494;2024-03-02T12:48:12;2.37;;;1.50;;
2756;SDS011;1386;50.862;6.494;2024-03-02T12:50:40;1.60;;;1.20;;
2756;SDS011;1386;50.862;6.494;2024-03-02T12:53:13;2.80;;;1.40;;
2756;SDS011;1386;50.862;6.494;2024-03-02T12:55:43;2.33;;;1.27;;
2756;SDS011;1386;50.862;6.494;2024-03-02T12:58:16;1.93;;;1.50;;
2756;SDS011;1386;50.862;6.494;2024-03-02T13:00:43;1.70;;;1.50;;
2756;SDS011;1386;50.862;6.494;2024-03-02T13:03:11;1.63;;;1.30;;
2756;SDS011;1386;50.862;6.494;2024-03-02T13:05:39;2.23;;;1.63;;
2756;SDS011;1386;50.862;6.494;2024-03-02T13:08:06;3.50;;;1.50;;
2756;SDS011;1386;50.862;6.494;2024-03-02T13:10:34;3.33;;;1.60;;
2756;SDS011;1386;50.862;6.494;2024-03-02T13:13:01;2.07;;;1.40;;
2756;SDS011;1386;50.862;6.494;2024-03-02T13:15:28;5.30;;;1.73;;
2756;SDS011;1386;50.862;6.494;2024-03-02T13:17:58;1.87;;;1.70;;
2756;SDS011;1386;50.862;6.494;2024-03-02T13:20:29;1.87;;;1.47;;
2756;SDS011;1386;50.862;6.494;2024-03-02T13:22:57;1.70;;;1.40;;
2756;SDS011;1386;50.862;6.494;2024-03-02T13:25:24;3.20;;;1.53;;
2756;SDS011;1386;50.862;6.494;2024-03-02T13:27:53;2.37;;;2.10;;
2756;SDS011;1386;50.862;6.494;2024-03-02T13:30:20;2.27;;;1.60;;
2756;SDS011;1386;50.862;6.494;2024-03-02T13:32:46;2.90;;;1.70;;
2756;SDS011;1386;50.862;6.494;2024-03-02T13:35:13;1.63;;;1.20;;
2756;SDS011;1386;50.862;6.494;2024-03-02T13:37:41;3.07;;;1.50;;
2756;SDS011;1386;50.862;6.494;2024-03-02T13:40:08;2.57;;;1.27;;
2756;SDS011;1386;50.862;6.494;2024-03-02T13:42:38;2.30;;;1.33;;
2756;SDS011;1386;50.862;6.494;2024-03-02T13:45:07;1.80;;;1.33;;
2756;SDS011;1386;50.862;6.494;2024-03-02T13:47:34;2.47;;;1.50;;
2756;SDS011;1386;50.862;6.494;2024-03-02T13:50:01;1.93;;;1.60;;
2756;SDS011;1386;50.862;6.494;2024-03-02T13:52:30;1.60;;;1.30;;
2756;SDS011;1386;50.862;6.494;2024-03-02T13:54:57;3.07;;;1.60;;
2756;SDS011;1386;50.862;6.494;2024-03-02T13:57:23;2.43;;;1.47;;
2756;SDS011;1386;50.862;6.494;2024-03-02T13:59:51;4.50;;;1.60;;
2756;SDS011;1386;50.862;6.494;2024-03-02T14:02:21;3.23;;;1.40;;
2756;SDS011;1386;50.862;6.494;2024-03-02T14:04:48;1.70;;;1.30;;
2756;SDS011;1386;50.862;6.494;2024-03-02T14:07:15;2.00;;;1.70;;
2756;SDS011;1386;50.862;6.494;2024-03-02T14:09:43;1.67;;;1.37;;
2756;SDS011;1386;50.862;6.494;2024-03-02T14:12:11;3.93;;;2.70;;
2756;SDS011;1386;50.862;6.494;2024-03-02T14:14:39;1.20;;;1.10;;
2756;SDS011;1386;50.862;6.494;2024-03-02T14:17:06;1.67;;;1.30;;
2756;SDS011;1386;50.862;6.494;2024-03-02T14:19:38;2.10;;;1.33;;
2756;SDS011;1386;50.862;6.494;2024-03-02T14:22:06;1.70;;;1.20;;
2756;SDS011;1386;50.862;6.494;2024-03-02T14:24:35;1.70;;;1.40;;
2756;SDS011;1386;50.862;6.494;2024-03-02T14:27:03;1.40;;;1.17;;
2756;SDS011;1386;50.862;6.494;2024-03-02T14:29:30;2.60;;;1.33;;
2756;SDS011;1386;50.862;6.494;2024-03-02T14:32:01;2.23;;;1.20;;
2756;SDS011;1386;50.862;6.494;2024-03-02T14:34:28;1.87;;;1.67;;
2756;SDS011;1386;50.862;6.494;2024-03-02T14:36:58;1.60;;;1.20;;
2756;SDS011;1386;50.862;6.494;2024-03-02T14:39:26;1.57;;;1.33;;
2756;SDS011;1386;50.862;6.494;2024-03-02T14:41:53;1.60;;;1.40;;
2756;SDS011;1386;50.862;6.494;2024-03-02T14:44:20;3.67;;;1.87;;
2756;SDS011;1386;50.862;6.494;2024-03-02T14:46:49;2.33;;;1.73;;
2756;SDS011;1386;50.862;6.494;2024-03-02T14:49:16;2.13;;;1.63;;
2756;SDS011;1386;50.862;6.494;2024-03-02T14:51:44;2.00;;;1.80;;
2756;SDS011;1386;50.862;6.494;2024-03-02T14:54:15;2.50;;;2.03;;
2756;SDS011;1386;50.862;6.494;2024-03-02T14:56:43;2.73;;;2.20;;
2756;SDS011;1386;50.862;6.494;2024-03-02T14:59:10;3.37;;;2.40;;
2756;SDS011;1386;50.862;6.494;2024-03-02T15:01:38;2.23;;;2.03;;
2756;SDS011;1386;50.862;6.494;2024-03-02T15:04:05;4.53;;;2.30;;
2756;SDS011;1386;50.862;6.494;2024-03-02T15:06:32;3.13;;;2.17;;
2756;SDS011;1386;50.862;6.494;2024-03-02T15:08:58;2.40;;;2.10;;
2756;SDS011;1386;50.862;6.494;2024-03-02T15:11:28;4.80;;;2.53;;
2756;SDS011;1386;50.862;6.494;2024-03-02T15:13:55;2.23;;;1.90;;
2756;SDS011;1386;50.862;6.494;2024-03-02T15:16:22;2.20;;;1.87;;
2756;SDS011;1386;50.862;6.494;2024-03-02T15:18:49;2.93;;;2.10;;
2756;SDS011;1386;50.862;6.494;2024-03-02T15:21:16;2.33;;;1.90;;
2756;SDS011;1386;50.862;6.494;2024-03-02T15:23:44;2.70;;;2.00;;
2756;SDS011;1386;50.862;6.494;2024-03-02T15:26:11;4.30;;;2.67;;
2756;SDS011;1386;50.862;6.494;2024-03-02T15:28:39;2.20;;;2.00;;
2756;SDS011;1386;50.862;6.494;2024-03-02T15:31:06;2.80;;;2.20;;
2756;SDS011;1386;50.862;6.494;2024-03-02T15:33:33;2.57;;;2.37;;
2756;SDS011;1386;50.862;6.494;2024-03-02T15:36:00;3.10;;;2.57;;
2756;SDS011;1386;50.862;6.494;2024-03-02T15:38:28;3.60;;;2.40;;
2756;SDS011;1386;50.862;6.494;2024-03-02T15:40:55;2.77;;;2.47;;
2756;SDS011;1386;50.862;6.494;2024-03-02T15:43:22;3.60;;;2.00;;
2756;SDS011;1386;50.862;6.494;2024-03-02T15:45:51;2.50;;;1.87;;
2756;SDS011;1386;50.862;6.494;2024-03-02T15:48:18;3.30;;;2.30;;
2756;SDS011;1386;50.862;6.494;2024-03-02T15:50:45;3.53;;;2.20;;
2756;SDS011;1386;50.862;6.494;2024-03-02T15:53:12;2.70;;;2.20;;
2756;SDS011;1386;50.862;6.494;2024-03-02T15:55:39;3.67;;;1.83;;
2756;SDS011;1386;50.862;6.494;2024-03-02T15:58:06;2.80;;;1.70;;
2756;SDS011;1386;50.862;6.494;2024-03-02T16:00:33;3.80;;;2.20;;
2756;SDS011;1386;50.862;6.494;2024-03-02T16:03:01;1.90;;;1.70;;
2756;SDS011;1386;50.862;6.494;2024-03-02T16:05:29;3.33;;;1.90;;
2756;SDS011;1386;50.862;6.494;2024-03-02T16:07:55;2.07;;;1.90;;
2756;SDS011;1386;50.862;6.494;2024-03-02T16:10:22;4.10;;;2.13;;
2756;SDS011;1386;50.862;6.494;2024-03-02T16:12:52;3.00;;;2.40;;
2756;SDS011;1386;50.862;6.494;2024-03-02T16:15:20;2.20;;;2.00;;
2756;SDS011;1386;50.862;6.494;2024-03-02T16:17:47;5.10;;;2.20;;
2756;SDS011;1386;50.862;6.494;2024-03-02T16:20:16;3.17;;;2.70;;
2756;SDS011;1386;50.862;6.494;2024-03-02T16:22:43;3.43;;;2.63;;
2756;SDS011;1386;50.862;6.494;2024-03-02T16:25:10;2.70;;;2.30;;
2756;SDS011;1386;50.862;6.494;2024-03-02T16:27:36;2.67;;;2.43;;
2756;SDS011;1386;50.862;6.494;2024-03-02T16:30:04;4.07;;;3.00;;
2756;SDS011;1386;50.862;6.494;2024-03-02T16:32:32;3.50;;;2.90;;
2756;SDS011;1386;50.862;6.494;2024-03-02T16:35:00;4.20;;;2.70;;
2756;SDS011;1386;50.862;6.494;2024-03-02T16:37:28;2.57;;;2.30;;
2756;SDS011;1386;50.862;6.494;2024-03-02T16:39:55;2.97;;;2.60;;
2756;SDS011;1386;50.862;6.494;2024-03-02T16:42:22;3.57;;;2.37;;
2756;SDS011;1386;50.862;6.494;2024-03-02T16:44:49;2.60;;;2.20;;
2756;SDS011;1386;50.862;6.494;2024-03-02T16:47:19;4.50;;;1.87;;
2756;SDS011;1386;50.862;6.494;2024-03-02T16:49:47;2.40;;;2.20;;
2756;SDS011;1386;50.862;6.494;2024-03-02T16:52:13;2.70;;;1.90;;
2756;SDS011;1386;50.862;6.494;2024-03-02T16:54:43;3.10;;;2.50;;
2756;SDS011;1386;50.862;6.494;2024-03-02T16:57:14;2.50;;;2.27;;
2756;SDS011;1386;50.862;6.494;2024-03-02T16:59:42;2.20;;;1.90;;
2756;SDS011;1386;50.862;6.494;2024-03-02T17:02:10;2.90;;;2.00;;
2756;SDS011;1386;50.862;6.494;2024-03-02T17:04:37;4.47;;;2.70;;
2756;SDS011;1386;50.862;6.494;2024-03-02T17:07:04;4.30;;;3.20;;
2756;SDS011;1386;50.862;6.494;2024-03-02T17:12:24;2.97;;;2.53;;
2756;SDS011;1386;50.862;6.494;2024-03-02T17:14:51;2.90;;;2.70;;
2756;SDS011;1386;50.862;6.494;2024-03-02T17:17:18;6.33;;;4.00;;
2756;SDS011;1386;50.862;6.494;2024-03-02T17:19:45;6.13;;;4.00;;
2756;SDS011;1386;50.862;6.494;2024-03-02T17:22:12;5.80;;;4.60;;
2756;SDS011;1386;50.862;6.494;2024-03-02T17:24:39;4.73;;;4.33;;
2756;SDS011;1386;50.862;6.494;2024-03-02T17:27:07;4.27;;;3.87;;
2756;SDS011;1386;50.862;6.494;2024-03-02T17:29:34;4.10;;;3.47;;
2756;SDS011;1386;50.862;6.494;2024-03-02T17:32:01;4.20;;;3.80;;
2756;SDS011;1386;50.862;6.494;2024-03-02T17:34:28;4.30;;;3.43;;
2756;SDS011;1386;50.862;6.494;2024-03-02T17:36:55;5.27;;;3.57;;
2756;SDS011;1386;50.862;6.494;2024-03-02T17:39:22;5.00;;;3.80;;
2756;SDS011;1386;50.862;6.494;2024-03-02T17:41:49;5.03;;;3.60;;
2756;SDS011;1386;50.862;6.494;2024-03-02T17:44:17;4.10;;;3.70;;
2756;SDS011;1386;50.862;6.494;2024-03-02T17:46:44;4.23;;;3.83;;
2756;SDS011;1386;50.862;6.494;2024-03-02T17:49:11;4.80;;;4.30;;
2756;SDS011;1386;50.862;6.494;2024-03-02T17:51:38;4.50;;;4.10;;
2756;SDS011;1386;50.862;6.494;2024-03-02T17:54:05;6.13;;;5.17;;
2756;SDS011;1386;50.862;6.494;2024-03-02T17:56:32;4.80;;;4.30;;
2756;SDS011;1386;50.862;6.494;2024-03-02T17:58:58;7.07;;;5.07;;
2756;SDS011;1386;50.862;6.494;2024-03-02T18:01:27;5.10;;;4.60;;
2756;SDS011;1386;50.862;6.494;2024-03-02T18:03:53;6.10;;;4.80;;
2756;SDS011;1386;50.862;6.494;2024-03-02T18:06:20;7.27;;;5.87;;
2756;SDS011;1386;50.862;6.494;2024-03-02T18:08:47;6.27;;;4.83;;
2756;SDS011;1386;50.862;6.494;2024-03-02T18:11:15;6.47;;;5.57;;
2756;SDS011;1386;50.862;6.494;2024-03-02T18:13:43;6.40;;;4.90;;
2756;SDS011;1386;50.862;6.494;2024-03-02T18:16:13;7.90;;;6.57;;
2756;SDS011;1386;50.862;6.494;2024-03-02T18:18:41;7.00;;;6.30;;
2756;SDS011;1386;50.862;6.494;2024-03-02T18:21:08;6.40;;;5.13;;
2756;SDS011;1386;50.862;6.494;2024-03-02T18:23:36;8.80;;;6.63;;
2756;SDS011;1386;50.862;6.494;2024-03-02T18:26:03;5.30;;;4.80;;
2756;SDS011;1386;50.862;6.494;2024-03-02T18:28:29;6.57;;;5.23;;
2756;SDS011;1386;50.862;6.494;2024-03-02T18:30:56;6.63;;;5.73;;
2756;SDS011;1386;50.862;6.494;2024-03-02T18:33:24;6.67;;;5.93;;
2756;SDS011;1386;50.862;6.494;2024-03-02T18:35:52;5.70;;;5.10;;
2756;SDS011;1386;50.862;6.494;2024-03-02T18:38:20;5.60;;;5.10;;
2756;SDS011;1386;50.862;6.494;2024-03-02T18:40:47;7.00;;;5.50;;
2756;SDS011;1386;50.862;6.494;2024-03-02T18:43:14;6.33;;;5.27;;
2756;SDS011;1386;50.862;6.494;2024-03-02T18:45:41;7.13;;;6.10;;
2756;SDS011;1386;50.862;6.494;2024-03-02T18:48:08;8.10;;;6.50;;
2756;SDS011;1386;50.862;6.494;2024-03-02T18:50:35;6.70;;;6.10;;
2756;SDS011;1386;50.862;6.494;2024-03-02T18:53:03;7.07;;;6.10;;
2756;SDS011;1386;50.862;6.494;2024-03-02T18:55:30;7.20;;;5.90;;
2756;SDS011;1386;50.862;6.494;2024-03-02T18:57:57;7.47;;;5.50;;
2756;SDS011;1386;50.862;6.494;2024-03-02T19:00:24;6.63;;;4.70;;
2756;SDS011;1386;50.862;6.494;2024-03-02T19:02:51;6.17;;;4.97;;
2756;SDS011;1386;50.862;6.494;2024-03-02T19:05:20;6.50;;;5.40;;
2756;SDS011;1386;50.862;6.494;2024-03-02T19:07:47;5.40;;;4.77;;
2756;SDS011;1386;50.862;6.494;2024-03-02T19:10:15;6.17;;;5.50;;
2756;SDS011;1386;50.862;6.494;2024-03-02T19:12:42;6.03;;;5.43;;
2756;SDS011;1386;50.862;6.494;2024-03-02T19:15:09;5.20;;;4.70;;
2756;SDS011;1386;50.862;6.494;2024-03-02T19:17:39;5.50;;;4.67;;
2756;SDS011;1386;50.862;6.494;2024-03-02T19:20:06;6.83;;;4.90;;
2756;SDS011;1386;50.862;6.494;2024-03-02T19:22:35;6.80;;;5.20;;
2756;SDS011;1386;50.862;6.494;2024-03-02T19:25:02;4.50;;;4.10;;
2756;SDS011;1386;50.862;6.494;2024-03-02T19:27:33;6.07;;;5.10;;
2756;SDS011;1386;50.862;6.494;2024-03-02T19:30:00;5.93;;;4.17;;
2756;SDS011;1386;50.862;6.494;2024-03-02T19:32:29;4.60;;;4.07;;
2756;SDS011;1386;50.862;6.494;2024-03-02T19:34:57;6.10;;;4.80;;
2756;SDS011;1386;50.862;6.494;2024-03-02T19:37:24;5.40;;;4.63;;
2756;SDS011;1386;50.862;6.494;2024-03-02T19:39:51;4.73;;;4.20;;
2756;SDS011;1386;50.862;6.494;2024-03-02T19:42:18;4.33;;;3.93;;
2756;SDS011;1386;50.862;6.494;2024-03-02T19:44:46;4.07;;;3.70;;
2756;SDS011;1386;50.862;6.494;2024-03-02T19:47:13;6.90;;;3.90;;
2756;SDS011;1386;50.862;6.494;2024-03-02T19:49:43;4.30;;;3.80;;
2756;SDS011;1386;50.862;6.494;2024-03-02T19:52:10;4.37;;;3.93;;
2756;SDS011;1386;50.862;6.494;2024-03-02T19:54:37;3.57;;;3.27;;
2756;SDS011;1386;50.862;6.494;2024-03-02T19:57:04;3.40;;;2.93;;
2756;SDS011;1386;50.862;6.494;2024-03-02T19:59:37;4.07;;;3.10;;
2756;SDS011;1386;50.862;6.494;2024-03-02T20:02:06;6.47;;;3.30;;
2756;SDS011;1386;50.862;6.494;2024-03-02T20:04:36;6.73;;;3.47;;